createdAt,value
2019-04-30T00:00:18.339Z,8.61
2019-04-30T00:01:19.007Z,8.59
2019-04-30T00:02:17.662Z,8.62
2019-04-30T00:03:19.582Z,8.62
2019-04-30T00:04:17.611Z,8.63
2019-04-30T00:05:18.862Z,8.59
2019-04-30T00:06:17.614Z,8.62
2019-04-30T00:07:19.031Z,8.56
2019-04-30T00:08:17.578Z,8.66
2019-04-30T00:09:19.208Z,8.58
2019-04-30T00:10:17.543Z,8.66
2019-04-30T00:11:19.521Z,8.62
2019-04-30T00:12:17.546Z,8.56
2019-04-30T00:13:20.884Z,8.52
2019-04-30T00:14:17.521Z,8.40
2019-04-30T00:15:19.435Z,8.47
2019-04-30T00:16:17.475Z,8.45
2019-04-30T00:17:19.604Z,8.47
2019-04-30T00:18:17.454Z,8.50
2019-04-30T00:19:19.719Z,8.50
2019-04-30T00:20:17.757Z,8.55
2019-04-30T00:21:18.833Z,8.50
2019-04-30T00:22:17.414Z,8.52
2019-04-30T00:23:18.086Z,8.55
2019-04-30T00:24:18.408Z,8.56
2019-04-30T00:25:19.634Z,8.50
2019-04-30T00:26:18.362Z,8.58
2019-04-30T00:27:21.085Z,8.55
2019-04-30T00:28:18.337Z,8.59
2019-04-30T00:29:26.544Z,8.52
2019-04-30T00:30:18.314Z,8.50
2019-04-30T00:31:23.506Z,8.52
2019-04-30T00:32:18.292Z,8.50
2019-04-30T00:33:22.272Z,8.50
2019-04-30T00:34:18.299Z,8.52
2019-04-30T00:35:19.570Z,8.55
2019-04-30T00:36:17.453Z,8.52
2019-04-30T00:37:18.774Z,8.52
2019-04-30T00:38:17.226Z,8.48
2019-04-30T00:39:17.218Z,8.40
2019-04-30T00:40:17.228Z,8.41
2019-04-30T00:41:17.195Z,8.40
2019-04-30T00:42:23.993Z,8.33
2019-04-30T00:43:18.167Z,8.29
2019-04-30T00:44:19.978Z,8.19
2019-04-30T00:45:18.175Z,8.25
2019-04-30T00:46:24.739Z,8.07
2019-04-30T00:47:18.123Z,8.07
2019-04-30T00:48:26.916Z,7.98
2019-04-30T00:49:22.954Z,7.83
2019-04-30T00:50:18.123Z,7.92
2019-04-30T00:51:21.119Z,7.79
2019-04-30T00:52:17.067Z,7.71
2019-04-30T00:53:17.055Z,7.67
2019-04-30T00:54:17.650Z,7.53
2019-04-30T00:55:17.033Z,7.58
2019-04-30T00:56:19.890Z,7.57
2019-04-30T00:57:18.017Z,7.55
2019-04-30T00:58:25.083Z,7.35
2019-04-30T00:59:17.986Z,7.40
2019-04-30T01:00:24.849Z,7.30
2019-04-30T01:01:17.999Z,7.27
2019-04-30T01:02:19.931Z,7.28
2019-04-30T01:03:17.968Z,7.15
2019-04-30T01:04:19.346Z,7.10
2019-04-30T01:05:17.924Z,6.98
2019-04-30T01:06:24.003Z,7.05
2019-04-30T01:07:17.900Z,7.03
2019-04-30T01:08:21.054Z,6.92
2019-04-30T01:09:17.876Z,6.91
2019-04-30T01:10:19.534Z,6.88
2019-04-30T01:11:17.852Z,6.85
2019-04-30T01:12:24.283Z,6.97
2019-04-30T01:13:19.193Z,6.87
2019-04-30T01:14:18.728Z,6.79
2019-04-30T01:15:16.811Z,6.79
2019-04-30T01:16:16.802Z,6.85
2019-04-30T01:17:16.786Z,6.73
2019-04-30T01:18:16.799Z,6.80
2019-04-30T01:19:27.513Z,6.74
2019-04-30T01:20:19.335Z,6.77
2019-04-30T01:21:18.401Z,6.77
2019-04-30T01:22:21.523Z,6.79
2019-04-30T01:23:19.386Z,6.73
2019-04-30T01:24:16.711Z,6.74
2019-04-30T01:25:16.701Z,6.71
2019-04-30T01:26:18.607Z,6.79
2019-04-30T01:27:18.705Z,6.80
2019-04-30T01:28:23.153Z,6.81
2019-04-30T01:29:19.285Z,6.64
2019-04-30T01:30:18.665Z,6.69
2019-04-30T01:31:18.764Z,6.62
2019-04-30T01:32:20.484Z,6.67
2019-04-30T01:33:16.632Z,6.67
2019-04-30T01:34:16.594Z,6.64
2019-04-30T01:35:16.589Z,6.59
2019-04-30T01:36:16.577Z,6.62
2019-04-30T01:37:16.582Z,6.52
2019-04-30T01:38:16.578Z,6.49
2019-04-30T01:39:16.544Z,6.55
2019-04-30T01:40:18.823Z,6.51
2019-04-30T01:41:20.338Z,6.46
2019-04-30T01:42:18.524Z,6.52
2019-04-30T01:43:16.523Z,6.44
2019-04-30T01:44:16.488Z,6.48
2019-04-30T01:45:16.500Z,6.43
2019-04-30T01:46:16.481Z,6.48
2019-04-30T01:47:16.457Z,6.49
2019-04-30T01:48:16.442Z,6.43
2019-04-30T01:49:19.975Z,6.41
2019-04-30T01:50:16.428Z,6.40
2019-04-30T01:51:20.451Z,6.49
2019-04-30T01:52:19.255Z,6.38
2019-04-30T01:53:16.382Z,6.30
2019-04-30T01:54:20.845Z,6.22
2019-04-30T01:55:17.400Z,6.22
2019-04-30T01:56:16.349Z,6.22
2019-04-30T01:57:16.339Z,6.19
2019-04-30T01:58:16.331Z,6.19
2019-04-30T01:59:16.326Z,6.15
2019-04-30T02:00:16.305Z,6.03
2019-04-30T02:01:16.317Z,6.03
2019-04-30T02:02:16.289Z,5.99
2019-04-30T02:03:16.272Z,5.99
2019-04-30T02:04:16.263Z,5.99
2019-04-30T02:05:16.248Z,5.94
2019-04-30T02:06:16.267Z,5.90
2019-04-30T02:07:16.228Z,5.90
2019-04-30T02:08:16.221Z,5.86
2019-04-30T02:09:16.205Z,5.89
2019-04-30T02:10:16.194Z,5.79
2019-04-30T02:11:16.206Z,5.74
2019-04-30T02:12:16.169Z,5.75
2019-04-30T02:13:16.186Z,5.68
2019-04-30T02:14:16.155Z,5.78
2019-04-30T02:15:16.139Z,5.68
2019-04-30T02:16:16.126Z,5.68
2019-04-30T02:17:16.113Z,5.65
2019-04-30T02:18:16.226Z,5.63
2019-04-30T02:19:16.091Z,5.58
2019-04-30T02:20:16.081Z,5.67
2019-04-30T02:21:16.072Z,5.61
2019-04-30T02:22:16.057Z,5.61
2019-04-30T02:23:16.071Z,5.56
2019-04-30T02:24:16.039Z,5.61
2019-04-30T02:25:16.032Z,5.61
2019-04-30T02:26:16.022Z,5.71
2019-04-30T02:27:16.030Z,5.65
2019-04-30T02:28:15.992Z,5.58
2019-04-30T02:29:16.008Z,5.61
2019-04-30T02:30:15.968Z,5.71
2019-04-30T02:31:15.959Z,5.54
2019-04-30T02:32:15.956Z,5.51
2019-04-30T02:33:15.969Z,5.43
2019-04-30T02:34:15.935Z,5.42
2019-04-30T02:35:15.939Z,5.33
2019-04-30T02:36:15.903Z,5.39
2019-04-30T02:37:15.898Z,5.35
2019-04-30T02:38:15.881Z,5.30
2019-04-30T02:39:15.883Z,5.30
2019-04-30T02:40:15.873Z,5.33
2019-04-30T02:41:15.844Z,5.28
2019-04-30T02:42:15.838Z,5.31
2019-04-30T02:43:15.827Z,5.25
2019-04-30T02:44:15.832Z,5.22
2019-04-30T02:45:15.806Z,5.28
2019-04-30T02:46:15.792Z,5.28
2019-04-30T02:47:15.781Z,5.20
2019-04-30T02:48:15.773Z,5.17
2019-04-30T02:49:15.786Z,5.30
2019-04-30T02:50:19.786Z,5.33
2019-04-30T02:51:16.735Z,5.28
2019-04-30T02:52:15.721Z,5.30
2019-04-30T02:53:15.710Z,5.33
2019-04-30T02:54:15.743Z,5.27
2019-04-30T02:55:15.696Z,5.31
2019-04-30T02:56:15.683Z,5.33
2019-04-30T02:57:15.676Z,5.33
2019-04-30T02:58:15.667Z,5.28
2019-04-30T02:59:15.673Z,5.24
2019-04-30T03:00:15.632Z,5.39
2019-04-30T03:01:15.630Z,5.36
2019-04-30T03:02:15.611Z,5.43
2019-04-30T03:03:15.620Z,5.45
2019-04-30T03:04:15.609Z,5.48
2019-04-30T03:05:15.580Z,5.49
2019-04-30T03:06:15.592Z,5.49
2019-04-30T03:07:15.587Z,5.54
2019-04-30T03:08:15.552Z,5.53
2019-04-30T03:09:15.546Z,5.67
2019-04-30T03:10:15.549Z,5.54
2019-04-30T03:11:15.539Z,5.71
2019-04-30T03:12:15.503Z,5.58
2019-04-30T03:13:15.491Z,5.64
2019-04-30T03:14:15.508Z,5.67
2019-04-30T03:15:15.465Z,5.68
2019-04-30T03:16:15.454Z,5.63
2019-04-30T03:17:15.442Z,5.65
2019-04-30T03:18:15.429Z,5.72
2019-04-30T03:19:15.442Z,5.76
2019-04-30T03:20:30.970Z,5.68
2019-04-30T03:21:19.066Z,5.72
2019-04-30T03:22:15.387Z,5.71
2019-04-30T03:23:15.400Z,5.67
2019-04-30T03:24:15.363Z,5.71
2019-04-30T03:25:15.352Z,5.68
2019-04-30T03:26:15.348Z,5.61
2019-04-30T03:27:15.329Z,5.63
2019-04-30T03:28:15.342Z,5.57
2019-04-30T03:29:15.338Z,5.57
2019-04-30T03:30:15.297Z,5.68
2019-04-30T03:31:15.294Z,5.71
2019-04-30T03:32:15.298Z,5.67
2019-04-30T03:33:15.264Z,5.61
2019-04-30T03:34:24.365Z,5.63
2019-04-30T03:35:16.238Z,5.61
2019-04-30T03:36:15.255Z,5.56
2019-04-30T03:37:15.217Z,5.51
2019-04-30T03:38:15.234Z,5.56
2019-04-30T03:39:15.206Z,5.54
2019-04-30T03:40:15.208Z,5.53
2019-04-30T03:41:15.176Z,5.53
2019-04-30T03:42:15.162Z,5.53
2019-04-30T03:43:15.153Z,5.46
2019-04-30T03:44:21.674Z,5.53
2019-04-30T03:45:16.152Z,5.53
2019-04-30T03:46:15.119Z,5.56
2019-04-30T03:47:15.105Z,5.57
2019-04-30T03:48:15.104Z,5.53
2019-04-30T03:49:15.105Z,5.58
2019-04-30T03:50:15.071Z,5.45
2019-04-30T03:51:15.061Z,5.53
2019-04-30T03:52:15.052Z,5.39
2019-04-30T03:53:15.039Z,5.40
2019-04-30T03:54:15.056Z,5.38
2019-04-30T03:55:15.019Z,5.40
2019-04-30T03:56:15.007Z,5.30
2019-04-30T03:57:14.993Z,5.24
2019-04-30T03:58:14.982Z,5.21
2019-04-30T03:59:14.996Z,5.30
2019-04-30T04:00:14.966Z,5.20
2019-04-30T04:01:14.951Z,5.22
2019-04-30T04:02:14.936Z,5.18
2019-04-30T04:03:14.926Z,5.13
2019-04-30T04:04:14.947Z,5.17
2019-04-30T04:05:14.912Z,5.10
2019-04-30T04:06:14.892Z,5.20
2019-04-30T04:07:14.881Z,5.12
2019-04-30T04:08:14.869Z,5.15
2019-04-30T04:09:14.900Z,5.12
2019-04-30T04:10:14.897Z,5.15
2019-04-30T04:11:14.840Z,5.12
2019-04-30T04:12:14.825Z,5.10
2019-04-30T04:13:14.815Z,5.07
2019-04-30T04:14:14.830Z,5.03
2019-04-30T04:15:14.791Z,5.00
2019-04-30T04:16:14.784Z,5.00
2019-04-30T04:17:14.772Z,5.03
2019-04-30T04:18:14.757Z,5.00
2019-04-30T04:19:14.776Z,5.02
2019-04-30T04:20:14.736Z,4.99
2019-04-30T04:21:16.869Z,4.97
2019-04-30T04:22:14.743Z,5.06
2019-04-30T04:23:14.704Z,5.00
2019-04-30T04:24:14.715Z,5.00
2019-04-30T04:25:14.679Z,5.04
2019-04-30T04:26:14.666Z,5.03
2019-04-30T04:27:14.656Z,5.07
2019-04-30T04:28:14.669Z,5.07
2019-04-30T04:29:14.653Z,5.04
2019-04-30T04:30:14.624Z,5.03
2019-04-30T04:31:14.637Z,5.00
2019-04-30T04:32:14.601Z,5.02
2019-04-30T04:33:14.589Z,4.92
2019-04-30T04:34:14.606Z,4.89
2019-04-30T04:35:14.592Z,4.99
2019-04-30T04:36:14.561Z,4.99
2019-04-30T04:37:14.543Z,4.99
2019-04-30T04:38:14.566Z,5.00
2019-04-30T04:39:14.521Z,5.04
2019-04-30T04:40:14.510Z,4.91
2019-04-30T04:41:14.522Z,4.96
2019-04-30T04:42:14.490Z,4.91
2019-04-30T04:43:14.478Z,4.94
2019-04-30T04:44:14.464Z,4.89
2019-04-30T04:45:14.455Z,4.86
2019-04-30T04:46:14.472Z,5.00
2019-04-30T04:47:16.150Z,4.97
2019-04-30T04:48:14.422Z,5.02
2019-04-30T04:49:14.433Z,4.86
2019-04-30T04:50:14.398Z,4.85
2019-04-30T04:51:27.660Z,4.99
2019-04-30T04:52:15.378Z,4.94
2019-04-30T04:53:14.364Z,4.89
2019-04-30T04:54:14.377Z,4.96
2019-04-30T04:55:14.345Z,4.92
2019-04-30T04:56:14.351Z,5.04
2019-04-30T04:57:18.411Z,5.02
2019-04-30T04:58:15.306Z,4.96
2019-04-30T04:59:14.329Z,5.00
2019-04-30T05:00:14.289Z,4.96
2019-04-30T05:01:14.275Z,5.04
2019-04-30T05:02:14.265Z,5.13
2019-04-30T05:03:14.253Z,5.12
2019-04-30T05:04:14.264Z,5.12
2019-04-30T05:05:14.233Z,5.18
2019-04-30T05:06:14.246Z,5.20
2019-04-30T05:07:14.210Z,5.20
2019-04-30T05:08:14.216Z,5.31
2019-04-30T05:09:14.184Z,5.35
2019-04-30T05:10:14.203Z,5.25
2019-04-30T05:11:14.192Z,5.38
2019-04-30T05:12:14.169Z,5.42
2019-04-30T05:13:14.151Z,5.39
2019-04-30T05:14:14.151Z,5.54
2019-04-30T05:15:14.163Z,5.61
2019-04-30T05:16:14.107Z,5.63
2019-04-30T05:17:14.097Z,5.63
2019-04-30T05:18:14.110Z,5.57
2019-04-30T05:19:14.200Z,5.72
2019-04-30T05:20:14.088Z,5.71
2019-04-30T05:21:14.082Z,5.76
2019-04-30T05:22:14.040Z,5.89
2019-04-30T05:23:14.033Z,5.82
2019-04-30T05:24:14.016Z,5.86
2019-04-30T05:25:14.005Z,5.90
2019-04-30T05:26:14.013Z,5.96
2019-04-30T05:27:13.988Z,6.04
2019-04-30T05:28:14.000Z,6.12
2019-04-30T05:29:13.960Z,6.14
2019-04-30T05:30:13.949Z,6.31
2019-04-30T05:31:13.955Z,6.43
2019-04-30T05:32:13.927Z,6.41
2019-04-30T05:33:13.916Z,6.48
2019-04-30T05:34:13.907Z,6.52
2019-04-30T05:35:13.895Z,6.49
2019-04-30T05:36:13.899Z,6.56
2019-04-30T05:37:13.872Z,6.67
2019-04-30T05:38:13.859Z,6.77
2019-04-30T05:39:13.865Z,6.80
2019-04-30T05:40:13.838Z,6.87
2019-04-30T05:41:13.857Z,6.88
2019-04-30T05:42:13.817Z,6.97
2019-04-30T05:43:13.804Z,6.91
2019-04-30T05:44:13.794Z,6.92
2019-04-30T05:45:13.782Z,6.92
2019-04-30T05:46:14.163Z,7.03
2019-04-30T05:47:13.759Z,7.10
2019-04-30T05:48:13.747Z,7.25
2019-04-30T05:49:13.737Z,7.15
2019-04-30T05:50:13.742Z,7.23
2019-04-30T05:51:13.737Z,7.30
2019-04-30T05:52:13.736Z,7.37
2019-04-30T05:53:13.691Z,7.50
2019-04-30T05:54:13.681Z,7.64
2019-04-30T05:55:13.701Z,7.75
2019-04-30T05:56:13.659Z,7.92
2019-04-30T05:57:13.651Z,8.04
2019-04-30T05:58:13.639Z,8.18
2019-04-30T05:59:13.625Z,8.47
2019-04-30T06:00:13.637Z,8.48
2019-04-30T06:01:13.605Z,8.52
2019-04-30T06:02:13.596Z,8.73
2019-04-30T06:03:25.174Z,8.94
2019-04-30T06:04:14.566Z,9.01
2019-04-30T06:05:13.579Z,8.91
2019-04-30T06:06:13.545Z,8.94
2019-04-30T06:07:13.567Z,8.95
2019-04-30T06:08:13.521Z,8.92
2019-04-30T06:09:18.734Z,8.87
2019-04-30T06:10:14.499Z,8.95
2019-04-30T06:11:13.488Z,9.08
2019-04-30T06:12:13.502Z,9.18
2019-04-30T06:13:13.467Z,9.28
2019-04-30T06:14:13.454Z,9.42
2019-04-30T06:15:13.466Z,9.48
2019-04-30T06:16:13.434Z,9.50
2019-04-30T06:17:13.444Z,9.46
2019-04-30T06:18:14.112Z,9.26
2019-04-30T06:19:13.397Z,9.32
2019-04-30T06:20:18.240Z,9.28
2019-04-30T06:21:14.374Z,9.26
2019-04-30T06:22:13.394Z,9.47
2019-04-30T06:23:13.376Z,9.53
2019-04-30T06:24:13.349Z,9.53
2019-04-30T06:25:13.331Z,9.48
2019-04-30T06:26:13.424Z,9.46
2019-04-30T06:27:13.307Z,9.53
2019-04-30T06:28:13.295Z,9.57
2019-04-30T06:29:13.313Z,9.47
2019-04-30T06:30:13.274Z,9.40
2019-04-30T06:31:13.262Z,9.39
2019-04-30T06:32:13.251Z,9.46
2019-04-30T06:33:13.290Z,9.46
2019-04-30T06:34:13.229Z,9.47
2019-04-30T06:35:13.219Z,9.47
2019-04-30T06:36:13.205Z,9.50
2019-04-30T06:37:13.196Z,9.60
2019-04-30T06:38:13.201Z,9.75
2019-04-30T06:39:13.173Z,9.79
2019-04-30T06:40:13.161Z,9.89
2019-04-30T06:41:13.150Z,9.91
2019-04-30T06:42:13.206Z,10.04
2019-04-30T06:43:13.127Z,10.27
2019-04-30T06:44:13.115Z,10.40
2019-04-30T06:45:13.105Z,10.55
2019-04-30T06:46:13.092Z,10.52
2019-04-30T06:47:13.118Z,10.64
2019-04-30T06:48:13.072Z,10.66
2019-04-30T06:49:13.059Z,10.67
2019-04-30T06:50:13.062Z,10.73
2019-04-30T06:51:13.037Z,10.66
2019-04-30T06:52:20.523Z,10.67
2019-04-30T06:53:14.011Z,10.63
2019-04-30T06:54:13.004Z,10.56
2019-04-30T06:55:13.019Z,10.66
2019-04-30T06:56:12.981Z,10.52
2019-04-30T06:57:12.972Z,10.56
2019-04-30T06:58:15.580Z,10.68
2019-04-30T06:59:12.974Z,10.85
2019-04-30T07:00:12.935Z,10.86
2019-04-30T07:01:12.952Z,11.09
2019-04-30T07:02:12.912Z,11.21
2019-04-30T07:03:12.907Z,11.21
2019-04-30T07:04:12.911Z,11.04
2019-04-30T07:05:12.879Z,10.81
2019-04-30T07:06:12.882Z,10.84
2019-04-30T07:07:14.262Z,11.06
2019-04-30T07:08:13.843Z,11.07
2019-04-30T07:09:12.851Z,10.86
2019-04-30T07:10:16.782Z,11.10
2019-04-30T07:11:13.829Z,11.25
2019-04-30T07:12:22.978Z,11.35
2019-04-30T07:13:13.787Z,11.15
2019-04-30T07:14:12.780Z,11.28
2019-04-30T07:15:13.755Z,11.49
2019-04-30T07:16:12.755Z,11.44
2019-04-30T07:17:12.765Z,11.44
2019-04-30T07:18:12.734Z,11.42
2019-04-30T07:19:12.746Z,11.29
2019-04-30T07:20:12.709Z,10.99
2019-04-30T07:21:12.698Z,11.10
2019-04-30T07:22:12.689Z,11.06
2019-04-30T07:23:12.678Z,11.06
2019-04-30T07:24:12.690Z,11.14
2019-04-30T07:25:12.654Z,11.04
2019-04-30T07:26:13.771Z,11.27
2019-04-30T07:27:13.630Z,11.35
2019-04-30T07:28:12.643Z,11.25
2019-04-30T07:29:12.608Z,11.39
2019-04-30T07:30:12.614Z,11.40
2019-04-30T07:31:14.585Z,11.49
2019-04-30T07:32:12.573Z,11.70
2019-04-30T07:33:12.585Z,11.70
2019-04-30T07:34:12.553Z,11.91
2019-04-30T07:35:12.556Z,12.05
2019-04-30T07:36:12.530Z,12.34
2019-04-30T07:38:13.522Z,12.47
2019-04-30T07:39:12.495Z,12.57
2019-04-30T07:40:12.512Z,12.64
2019-04-30T07:41:12.490Z,12.59
2019-04-30T07:42:12.460Z,12.56
2019-04-30T07:43:12.452Z,12.23
2019-04-30T07:44:29.413Z,12.41
2019-04-30T07:45:13.426Z,12.60
2019-04-30T07:46:12.442Z,12.62
2019-04-30T07:47:12.408Z,12.64
2019-04-30T07:48:12.416Z,12.78
2019-04-30T07:49:12.382Z,12.77
2019-04-30T07:50:12.853Z,12.79
2019-04-30T07:51:12.797Z,12.82
2019-04-30T07:52:13.003Z,12.70
2019-04-30T07:53:13.033Z,12.83
2019-04-30T07:54:12.329Z,12.87
2019-04-30T07:55:12.349Z,13.12
2019-04-30T07:56:24.142Z,12.92
2019-04-30T07:57:13.291Z,13.15
2019-04-30T07:58:12.429Z,13.14
2019-04-30T07:59:12.274Z,13.51
2019-04-30T08:00:12.285Z,13.62
2019-04-30T08:01:12.246Z,13.55
2019-04-30T08:02:14.857Z,13.67
2019-04-30T08:03:12.636Z,13.78
2019-04-30T08:04:12.212Z,13.82
2019-04-30T08:05:12.202Z,13.84
2019-04-30T08:06:12.260Z,13.54
2019-04-30T08:07:12.200Z,13.46
2019-04-30T08:08:20.782Z,13.41
2019-04-30T08:09:13.157Z,13.36
2019-04-30T08:09:34.989Z,12.57
2019-04-30T08:10:12.145Z,13.26
2019-04-30T08:11:23.129Z,13.60
2019-04-30T08:12:22.004Z,13.71
2019-04-30T08:13:15.179Z,13.60
2019-04-30T08:14:12.099Z,13.96
2019-04-30T08:15:12.114Z,13.99
2019-04-30T08:16:12.079Z,13.81
2019-04-30T08:17:12.065Z,13.63
2019-04-30T08:18:12.053Z,13.71
2019-04-30T08:19:12.067Z,13.57
2019-04-30T08:20:12.031Z,13.51
2019-04-30T08:21:12.045Z,13.60
2019-04-30T08:22:12.029Z,13.51
2019-04-30T08:23:20.268Z,13.62
2019-04-30T08:24:12.988Z,13.70
2019-04-30T08:25:11.978Z,13.69
2019-04-30T08:26:11.996Z,13.52
2019-04-30T08:27:11.955Z,13.30
2019-04-30T08:28:11.941Z,13.44
2019-04-30T08:29:11.931Z,13.29
2019-04-30T08:30:21.258Z,13.44
2019-04-30T08:31:15.554Z,13.51
2019-04-30T08:32:11.923Z,13.69
2019-04-30T08:33:11.887Z,14.09
2019-04-30T08:34:11.874Z,14.09
2019-04-30T08:35:11.864Z,14.32
2019-04-30T08:36:11.850Z,14.52
2019-04-30T08:37:17.153Z,14.18
2019-04-30T08:38:12.825Z,14.09
2019-04-30T08:39:11.840Z,14.27
2019-04-30T08:40:11.809Z,14.27
2019-04-30T08:41:11.803Z,14.52
2019-04-30T08:42:11.788Z,14.46
2019-04-30T08:43:11.796Z,14.36
2019-04-30T08:44:11.767Z,14.14
2019-04-30T08:45:11.763Z,14.24
2019-04-30T08:46:11.768Z,14.52
2019-04-30T08:47:11.734Z,14.50
2019-04-30T08:48:11.717Z,14.60
2019-04-30T08:49:11.799Z,14.91
2019-04-30T08:50:11.898Z,14.78
2019-04-30T08:51:13.707Z,14.58
2019-04-30T08:52:11.941Z,14.43
2019-04-30T08:53:11.898Z,14.40
2019-04-30T08:54:11.650Z,14.57
2019-04-30T08:55:16.550Z,14.61
2019-04-30T08:56:12.655Z,14.68
2019-04-30T08:57:11.644Z,14.83
2019-04-30T08:58:14.914Z,14.99
2019-04-30T08:59:11.620Z,15.03
2019-04-30T09:00:12.138Z,14.83
2019-04-30T09:01:11.574Z,14.72
2019-04-30T09:02:15.829Z,14.50
2019-04-30T09:03:11.549Z,14.70
2019-04-30T09:04:11.590Z,15.06
2019-04-30T09:05:11.524Z,14.86
2019-04-30T09:06:11.513Z,14.78
2019-04-30T09:07:11.502Z,14.52
2019-04-30T09:08:11.493Z,14.51
2019-04-30T09:09:11.528Z,14.45
2019-04-30T09:10:11.486Z,14.45
2019-04-30T09:11:22.501Z,14.37
2019-04-30T09:12:12.451Z,14.61
2019-04-30T09:13:11.436Z,14.95
2019-04-30T09:14:11.453Z,14.94
2019-04-30T09:15:11.413Z,14.95
2019-04-30T09:16:11.407Z,14.92
2019-04-30T09:17:11.392Z,14.75
2019-04-30T09:18:12.602Z,14.73
2019-04-30T09:19:11.368Z,14.89
2019-04-30T09:20:11.389Z,14.88
2019-04-30T09:21:11.353Z,14.73
2019-04-30T09:22:15.109Z,14.96
2019-04-30T09:23:11.396Z,15.10
2019-04-30T09:24:11.336Z,15.03
2019-04-30T09:25:11.335Z,15.20
2019-04-30T09:26:11.289Z,15.23
2019-04-30T09:27:11.281Z,15.43
2019-04-30T09:28:11.267Z,15.44
2019-04-30T09:29:11.261Z,15.53
2019-04-30T09:30:11.284Z,15.53
2019-04-30T09:31:11.234Z,15.27
2019-04-30T09:32:11.223Z,15.01
2019-04-30T09:33:11.305Z,15.28
2019-04-30T09:34:17.559Z,15.19
2019-04-30T09:35:12.214Z,15.25
2019-04-30T09:36:11.177Z,14.98
2019-04-30T09:37:11.174Z,14.86
2019-04-30T09:38:11.159Z,14.86
2019-04-30T09:39:11.191Z,15.14
2019-04-30T09:40:17.925Z,15.29
2019-04-30T09:41:12.166Z,15.27
2019-04-30T09:42:11.115Z,15.11
2019-04-30T09:43:11.138Z,14.77
2019-04-30T09:44:11.090Z,14.73
2019-04-30T09:45:11.076Z,15.02
2019-04-30T09:46:19.133Z,15.19
2019-04-30T09:47:12.056Z,15.11
2019-04-30T09:48:11.070Z,15.02
2019-04-30T09:49:11.038Z,15.31
2019-04-30T09:50:11.028Z,15.54
2019-04-30T09:51:11.535Z,15.57
2019-04-30T09:52:11.334Z,15.69
2019-04-30T09:53:11.289Z,15.68
2019-04-30T09:54:12.794Z,15.53
2019-04-30T09:55:11.240Z,15.47
2019-04-30T09:56:10.952Z,15.35
2019-04-30T09:57:11.470Z,15.35
2019-04-30T09:58:16.945Z,15.60
2019-04-30T09:59:11.918Z,15.68
2019-04-30T10:00:10.913Z,15.72
2019-04-30T10:01:10.928Z,15.90
2019-04-30T10:02:10.887Z,16.11
2019-04-30T10:03:11.510Z,16.01
2019-04-30T10:04:11.441Z,15.71
2019-04-30T10:05:11.692Z,15.65
2019-04-30T10:06:10.888Z,15.76
2019-04-30T10:07:10.828Z,16.01
2019-04-30T10:08:10.818Z,16.23
2019-04-30T10:09:10.804Z,16.48
2019-04-30T10:10:11.406Z,16.63
2019-04-30T10:11:10.809Z,16.83
2019-04-30T10:12:10.771Z,16.46
2019-04-30T10:13:10.762Z,16.09
2019-04-30T10:14:10.752Z,16.02
2019-04-30T10:15:10.776Z,15.83
2019-04-30T10:16:10.727Z,15.78
2019-04-30T10:17:10.714Z,15.72
2019-04-30T10:18:10.702Z,15.97
2019-04-30T10:19:10.696Z,16.08
2019-04-30T10:20:10.707Z,16.20
2019-04-30T10:21:10.671Z,16.20
2019-04-30T10:22:10.664Z,16.14
2019-04-30T10:23:10.646Z,16.15
2019-04-30T10:24:15.490Z,16.48
2019-04-30T10:25:11.649Z,16.39
2019-04-30T10:26:10.611Z,16.25
2019-04-30T10:27:13.249Z,16.46
2019-04-30T10:28:10.609Z,16.49
2019-04-30T10:29:10.622Z,16.34
2019-04-30T10:30:10.596Z,16.27
2019-04-30T10:31:10.571Z,16.30
2019-04-30T10:32:10.556Z,16.43
2019-04-30T10:33:10.537Z,16.76
2019-04-30T10:34:10.522Z,16.48
2019-04-30T10:35:10.534Z,16.42
2019-04-30T10:36:10.507Z,16.63
2019-04-30T10:37:10.495Z,16.45
2019-04-30T10:38:10.511Z,16.63
2019-04-30T10:39:10.512Z,16.89
2019-04-30T10:40:10.590Z,16.98
2019-04-30T10:41:10.475Z,16.63
2019-04-30T10:42:10.431Z,16.39
2019-04-30T10:43:10.432Z,16.24
2019-04-30T10:44:10.448Z,16.38
2019-04-30T10:45:10.399Z,16.43
2019-04-30T10:46:10.398Z,16.71
2019-04-30T10:47:10.413Z,16.86
2019-04-30T10:48:10.375Z,16.78
2019-04-30T10:49:10.355Z,16.56
2019-04-30T10:50:10.343Z,16.63
2019-04-30T10:51:10.342Z,16.81
2019-04-30T10:52:10.398Z,16.56
2019-04-30T10:53:12.416Z,16.52
2019-04-30T10:54:23.026Z,16.76
2019-04-30T10:55:11.284Z,16.68
2019-04-30T10:56:10.383Z,16.79
2019-04-30T10:57:10.272Z,16.78
2019-04-30T10:58:10.256Z,17.06
2019-04-30T10:59:10.269Z,16.88
2019-04-30T11:00:10.230Z,17.07
2019-04-30T11:01:10.220Z,17.03
2019-04-30T11:02:10.210Z,16.96
2019-04-30T11:03:19.255Z,16.83
2019-04-30T11:04:11.187Z,17.00
2019-04-30T11:05:10.177Z,17.03
2019-04-30T11:06:10.164Z,17.19
2019-04-30T11:07:10.151Z,17.19
2019-04-30T11:08:10.217Z,17.22
2019-04-30T11:09:10.127Z,17.26
2019-04-30T11:10:10.135Z,17.46
2019-04-30T11:11:10.109Z,17.43
2019-04-30T11:12:10.095Z,17.51
2019-04-30T11:13:10.117Z,17.40
2019-04-30T11:14:10.072Z,17.63
2019-04-30T11:15:10.064Z,17.63
2019-04-30T11:16:15.177Z,17.52
2019-04-30T11:17:11.272Z,17.38
2019-04-30T11:18:10.212Z,17.26
2019-04-30T11:19:10.218Z,17.43
2019-04-30T11:20:10.472Z,17.72
2019-04-30T11:21:10.251Z,17.63
2019-04-30T11:22:10.235Z,17.63
2019-04-30T11:23:14.509Z,17.63
2019-04-30T11:24:11.211Z,17.54
2019-04-30T11:25:10.476Z,17.77
2019-04-30T11:26:10.447Z,17.89
2019-04-30T11:27:11.174Z,17.86
2019-04-30T11:28:10.531Z,17.99
2019-04-30T11:29:10.099Z,18.26
2019-04-30T11:30:20.183Z,18.37
2019-04-30T11:31:11.044Z,18.20
2019-04-30T11:32:10.059Z,18.26
2019-04-30T11:33:10.131Z,18.42
2019-04-30T11:34:09.861Z,18.36
2019-04-30T11:35:09.865Z,18.41
2019-04-30T11:36:09.832Z,18.42
2019-04-30T11:37:09.825Z,18.21
2019-04-30T11:38:09.806Z,18.12
2019-04-30T11:39:09.796Z,17.70
2019-04-30T11:40:09.806Z,17.62
2019-04-30T11:41:09.795Z,17.46
2019-04-30T11:42:09.758Z,17.18
2019-04-30T11:43:09.749Z,17.25
2019-04-30T11:44:09.736Z,17.52
2019-04-30T11:45:09.752Z,17.36
2019-04-30T11:46:09.712Z,17.26
2019-04-30T11:47:09.705Z,17.41
2019-04-30T11:48:09.812Z,17.62
2019-04-30T11:49:09.765Z,17.72
2019-04-30T11:50:09.669Z,17.93
2019-04-30T11:51:09.659Z,18.07
2019-04-30T11:52:09.646Z,18.12
2019-04-30T11:53:24.093Z,17.81
2019-04-30T11:54:10.656Z,17.58
2019-04-30T11:55:09.822Z,17.43
2019-04-30T11:56:09.603Z,17.49
2019-04-30T11:57:09.617Z,17.58
2019-04-30T11:58:21.153Z,17.54
2019-04-30T11:59:10.567Z,17.71
2019-04-30T12:00:10.743Z,17.70
2019-04-30T12:01:09.546Z,17.78
2019-04-30T12:02:09.563Z,17.93
2019-04-30T12:03:09.522Z,18.02
2019-04-30T12:04:09.511Z,18.27
2019-04-30T12:05:09.503Z,18.33
2019-04-30T12:06:09.515Z,18.07
2019-04-30T12:07:09.478Z,17.87
2019-04-30T12:08:09.629Z,17.72
2019-04-30T12:09:09.456Z,17.70
2019-04-30T12:10:09.557Z,17.64
2019-04-30T12:11:09.432Z,17.59
2019-04-30T12:12:09.423Z,17.55
2019-04-30T12:13:09.647Z,17.38
2019-04-30T12:14:09.401Z,17.37
2019-04-30T12:15:09.462Z,17.51
2019-04-30T12:16:09.378Z,17.63
2019-04-30T12:17:09.366Z,17.70
2019-04-30T12:18:09.383Z,17.79
2019-04-30T12:19:09.342Z,17.48
2019-04-30T12:20:09.334Z,17.64
2019-04-30T12:21:09.334Z,17.44
2019-04-30T12:22:09.308Z,17.51
2019-04-30T12:23:11.727Z,17.55
2019-04-30T12:24:09.287Z,17.75
2019-04-30T12:25:10.051Z,17.90
2019-04-30T12:26:09.336Z,18.00
2019-04-30T12:27:09.252Z,17.99
2019-04-30T12:28:09.565Z,17.84
2019-04-30T12:29:11.173Z,17.92
2019-04-30T12:30:09.222Z,18.17
2019-04-30T12:31:09.852Z,17.96
2019-04-30T12:32:09.209Z,17.86
2019-04-30T12:33:09.186Z,17.97
2019-04-30T12:34:09.177Z,18.00
2019-04-30T12:35:09.163Z,17.95
2019-04-30T12:36:09.175Z,17.78
2019-04-30T12:37:10.750Z,17.70
2019-04-30T12:38:09.170Z,17.66
2019-04-30T12:39:09.123Z,17.72
2019-04-30T12:40:13.908Z,17.93
2019-04-30T12:41:10.119Z,17.97
2019-04-30T12:42:09.121Z,17.97
2019-04-30T12:43:09.074Z,17.90
2019-04-30T12:44:09.063Z,17.93
2019-04-30T12:45:09.554Z,17.74
2019-04-30T12:46:09.048Z,17.63
2019-04-30T12:47:09.663Z,17.64
2019-04-30T12:48:09.018Z,17.68
2019-04-30T12:49:10.244Z,17.63
2019-04-30T12:50:09.583Z,17.64
2019-04-30T12:51:09.011Z,17.63
2019-04-30T12:52:08.975Z,17.68
2019-04-30T12:53:09.482Z,17.64
2019-04-30T12:54:08.950Z,17.64
2019-04-30T12:55:15.291Z,17.62
2019-04-30T12:56:09.946Z,17.78
2019-04-30T12:57:11.028Z,17.86
2019-04-30T12:58:09.770Z,17.81
2019-04-30T12:59:08.903Z,17.55
2019-04-30T13:00:09.486Z,17.70
2019-04-30T13:01:09.072Z,17.66
2019-04-30T13:02:09.161Z,17.63
2019-04-30T13:03:08.850Z,17.66
2019-04-30T13:04:09.838Z,17.77
2019-04-30T13:05:08.930Z,17.70